Time;durP1;ratioP1;P1;durP2;ratioP2;P2;SDS_P1;SDS_P2;PMS_P1;PMS_P2;Temp;Humidity;BMP_temperature;BMP_pressure;BME280_temperature;BME280_humidity;BME280_pressure;Samples;Min_cycle;Max_cycle;Signal;HPM_P1;HPM_P2
2023/07/04 05:49:58;;;;;;;13.37;4.77;;;;;;;;;;10510496;28;20465;-83
2023/07/04 05:55:00;;;;;;;12.30;3.85;;;;;;;;;;10499303;28;20029;-86
2023/07/04 06:00:30;;;;;;;12.80;4.82;;;;;;;;;;10493599;28;20029;-87
2023/07/04 06:05:31;;;;;;;16.50;4.70;;;;;;;;;;10491550;28;20429;-87
2023/07/04 06:11:24;;;;;;;15.10;4.70;;;;;;;;;;10505015;28;20033;-85
2023/07/04 06:33:19;;;;;;;14.70;6.53;;;;;;;;;;10579264;22;20067;-85
2023/07/04 06:38:21;;;;;;;9.13;4.43;;;;;;;;;;10565994;28;20481;-85
2023/07/04 06:43:23;;;;;;;10.55;4.38;;;;;;;;;;10565242;28;20039;-85
2023/07/04 06:48:32;;;;;;;18.90;9.68;;;;;;;;;;10581893;28;20034;-85
2023/07/04 06:53:34;;;;;;;12.83;4.60;;;;;;;;;;10558820;28;20537;-85
2023/07/04 06:58:56;;;;;;;14.38;5.53;;;;;;;;;;10565283;28;20071;-85
2023/07/04 07:03:57;;;;;;;10.48;4.35;;;;;;;;;;10540614;28;20043;-84
2023/07/04 07:08:58;;;;;;;7.85;3.70;;;;;;;;;;10535844;28;20036;-84
2023/07/04 07:14:34;;;;;;;13.70;4.70;;;;;;;;;;10529638;28;20201;-88
2023/07/04 07:20:23;;;;;;;10.55;4.85;;;;;;;;;;10547389;28;20047;-88
2023/07/04 07:31:27;;;;;;;14.98;8.57;;;;;;;;;;10516452;28;20036;-87
2023/07/04 07:36:44;;;;;;;16.63;9.85;;;;;;;;;;10542048;28;20044;-87
2023/07/04 07:59:21;;;;;;;9.05;4.20;;;;;;;;;;10415305;28;20112;-88
2023/07/04 08:04:25;;;;;;;10.40;5.82;;;;;;;;;;10400942;28;20526;-85
2023/07/04 08:09:38;;;;;;;10.77;5.30;;;;;;;;;;10415253;28;20042;-87
2023/07/04 08:14:39;;;;;;;7.28;3.72;;;;;;;;;;10399552;28;20514;-87
2023/07/04 08:25:44;;;;;;;11.65;4.55;;;;;;;;;;10374083;28;20026;-88
2023/07/04 08:31:33;;;;;;;9.65;4.20;;;;;;;;;;10375166;28;20037;-87
2023/07/04 08:42:39;;;;;;;9.80;4.85;;;;;;;;;;10436128;28;20029;-86
2023/07/04 08:47:41;;;;;;;8.88;3.80;;;;;;;;;;10456763;28;20032;-87
2023/07/04 08:53:03;;;;;;;5.85;2.85;;;;;;;;;;10524305;28;20024;-87
2023/07/04 08:58:11;;;;;;;7.68;3.47;;;;;;;;;;10523034;28;20490;-87
2023/07/04 09:03:25;;;;;;;6.75;2.95;;;;;;;;;;10527176;28;20024;-87
2023/07/04 09:08:47;;;;;;;6.60;3.10;;;;;;;;;;10523684;28;20036;-87
2023/07/04 09:25:11;;;;;;;10.90;6.63;;;;;;;;;;10582958;28;20016;-87
2023/07/04 09:30:39;;;;;;;6.53;3.63;;;;;;;;;;10381538;28;20030;-87
2023/07/04 09:35:43;;;;;;;8.50;5.45;;;;;;;;;;10376929;28;20476;-86
2023/07/04 09:40:46;;;;;;;8.70;4.47;;;;;;;;;;10356249;28;20065;-88
2023/07/04 09:45:50;;;;;;;8.02;4.38;;;;;;;;;;10401875;28;20032;-88
2023/07/04 09:51:15;;;;;;;6.63;3.67;;;;;;;;;;10523411;28;20119;-88
2023/07/04 09:56:27;;;;;;;10.63;5.88;;;;;;;;;;10457075;28;20543;-86
2023/07/04 10:01:28;;;;;;;12.95;7.07;;;;;;;;;;10522835;28;20078;-87
2023/07/04 10:06:50;;;;;;;15.73;11.30;;;;;;;;;;10540235;28;20039;-88
2023/07/04 10:39:50;;;;;;;9.48;4.30;;;;;;;;;;10464919;28;20045;-87
2023/07/04 10:50:36;;;;;;;7.65;4.00;;;;;;;;;;10562773;28;20066;-85
2023/07/04 10:55:56;;;;;;;8.20;4.35;;;;;;;;;;10536542;28;20036;-86
2023/07/04 11:12:35;;;;;;;7.13;4.78;;;;;;;;;;10547297;28;20024;-88
2023/07/04 11:18:09;;;;;;;7.65;2.97;;;;;;;;;;10529359;28;20482;-88
2023/07/04 11:23:43;;;;;;;5.45;2.28;;;;;;;;;;10554097;28;20028;-89
2023/07/04 12:03:31;;;;;;;4.70;2.55;;;;;;;;;;10433493;28;20040;-87
2023/07/04 12:14:23;;;;;;;7.47;4.80;;;;;;;;;;10542908;28;20040;-87
2023/07/04 12:19:39;;;;;;;6.15;2.67;;;;;;;;;;10527114;28;20040;-87
2023/07/04 12:24:40;;;;;;;5.97;2.85;;;;;;;;;;10548545;28;20032;-87
2023/07/04 12:29:50;;;;;;;4.80;2.53;;;;;;;;;;10548214;28;20036;-88
2023/07/04 13:20:19;;;;;;;5.88;3.65;;;;;;;;;;10545831;28;20047;-85
2023/07/04 13:42:41;;;;;;;5.88;3.20;;;;;;;;;;10551019;28;20536;-84
2023/07/04 13:47:51;;;;;;;6.85;3.53;;;;;;;;;;10553102;28;20040;-83
2023/07/04 13:53:08;;;;;;;5.70;3.75;;;;;;;;;;10516534;28;20138;-84
2023/07/04 13:58:41;;;;;;;7.90;3.40;;;;;;;;;;10532382;28;20051;-84
2023/07/04 14:09:45;;;;;;;7.00;3.85;;;;;;;;;;10551744;28;20020;-84
2023/07/04 14:14:48;;;;;;;7.88;5.25;;;;;;;;;;10547247;28;20478;-84
2023/07/04 14:20:15;;;;;;;5.90;4.20;;;;;;;;;;10537998;28;20516;-84
2023/07/04 14:25:38;;;;;;;5.47;3.80;;;;;;;;;;10459310;28;20033;-84
2023/07/04 14:30:40;;;;;;;5.90;3.72;;;;;;;;;;10443634;28;20033;-82
2023/07/04 14:36:05;;;;;;;16.88;13.23;;;;;;;;;;10532568;28;20040;-82
2023/07/04 14:41:29;;;;;;;6.60;4.30;;;;;;;;;;10519309;28;20037;-84
2023/07/04 14:46:34;;;;;;;8.10;5.57;;;;;;;;;;10501385;28;20107;-87
2023/07/04 14:51:45;;;;;;;6.35;4.18;;;;;;;;;;10508805;28;20033;-84
2023/07/04 14:57:10;;;;;;;6.88;4.05;;;;;;;;;;10518499;28;20370;-84
2023/07/04 15:19:13;;;;;;;6.95;4.68;;;;;;;;;;10499678;28;20048;-84
2023/07/04 15:29:56;;;;;;;7.68;4.60;;;;;;;;;;10556907;28;20052;-86
2023/07/04 15:35:11;;;;;;;6.05;4.32;;;;;;;;;;10539592;28;20059;-85
2023/07/04 15:40:15;;;;;;;7.45;4.97;;;;;;;;;;10539834;28;20074;-85
2023/07/04 15:45:25;;;;;;;7.50;4.55;;;;;;;;;;10525851;28;20407;-85
2023/07/04 15:50:26;;;;;;;7.25;5.00;;;;;;;;;;10558705;28;20039;-85
2023/07/04 16:01:22;;;;;;;10.95;9.32;;;;;;;;;;10552296;28;20028;-87
2023/07/04 16:12:21;;;;;;;11.95;5.97;;;;;;;;;;10550951;28;20040;-86
2023/07/04 16:17:42;;;;;;;8.10;5.65;;;;;;;;;;10552201;28;20032;-86
2023/07/04 16:22:44;;;;;;;10.73;5.80;;;;;;;;;;10535956;28;20461;-89
2023/07/04 16:28:06;;;;;;;11.15;8.93;;;;;;;;;;10555514;28;20060;-91
2023/07/04 19:03:23;;;;;;;12.20;7.15;;;;;;;;;;10551289;28;20036;-88
2023/07/04 19:08:24;;;;;;;11.50;6.72;;;;;;;;;;10532251;28;20473;-89
2023/07/04 19:13:25;;;;;;;10.38;6.50;;;;;;;;;;10549202;28;20123;-88
